Time;durP1;ratioP1;P1;durP2;ratioP2;P2;SDS_P1;SDS_P2;PMS_P1;PMS_P2;Temp;Humidity;BMP_temperature;BMP_pressure;BME280_temperature;BME280_humidity;BME280_pressure;Samples;Min_cycle;Max_cycle;Signal;HPM_P1;HPM_P2
2022/08/31 00:05:13;;;;;;;;;;;17.20;99.90;;;;;;5046642;28;19926;-80
2022/08/31 00:07:38;;;;;;;;;;;17.10;99.90;;;;;;4997203;28;19929;-80
2022/08/31 00:10:12;;;;;;;;;;;17.00;99.90;;;;;;5013813;28;19925;-80
2022/08/31 00:12:40;;;;;;;;;;;17.00;99.90;;;;;;5014513;28;19948;-79
2022/08/31 00:15:06;;;;;;;;;;;16.90;99.90;;;;;;4997371;28;19926;-80
2022/08/31 00:17:32;;;;;;;;;;;16.80;99.90;;;;;;5013690;28;19926;-80
2022/08/31 00:19:57;;;;;;;;;;;16.80;99.90;;;;;;5014330;28;20008;-80
2022/08/31 00:22:23;;;;;;;;;;;16.80;99.90;;;;;;5013530;28;20373;-79
2022/08/31 00:24:48;;;;;;;;;;;16.70;99.90;;;;;;4997845;28;19930;-79
2022/08/31 00:27:14;;;;;;;;;;;16.70;99.90;;;;;;5013305;28;20376;-79
2022/08/31 00:29:40;;;;;;;;;;;16.60;99.90;;;;;;5029238;28;19933;-80
2022/08/31 00:32:05;;;;;;;;;;;16.50;99.90;;;;;;5013763;28;20020;-79
2022/08/31 00:34:31;;;;;;;;;;;16.50;99.90;;;;;;5013512;28;19929;-80
2022/08/31 00:36:58;;;;;;;;;;;16.40;99.90;;;;;;5013226;28;19925;-79
2022/08/31 00:39:24;;;;;;;;;;;16.40;99.90;;;;;;5046349;28;19977;-79
2022/08/31 00:41:50;;;;;;;;;;;16.40;99.90;;;;;;4997028;28;19960;-80
2022/08/31 00:44:15;;;;;;;;;;;16.30;99.90;;;;;;5013940;28;19972;-79
2022/08/31 00:46:42;;;;;;;;;;;16.30;99.90;;;;;;5029583;28;20016;-80
2022/08/31 00:49:13;;;;;;;;;;;16.30;99.90;;;;;;5013631;28;19976;-80
2022/08/31 00:52:00;;;;;;;;;;;16.20;99.90;;;;;;5013896;28;19976;-79
2022/08/31 00:54:29;;;;;;;;;;;16.20;99.90;;;;;;5013089;28;19932;-79
2022/08/31 00:56:55;;;;;;;;;;;16.10;99.90;;;;;;5013344;28;19932;-80
2022/08/31 00:59:21;;;;;;;;;;;16.00;99.90;;;;;;5013097;28;20286;-79
2022/08/31 01:01:47;;;;;;;;;;;16.00;99.90;;;;;;5013022;28;19925;-80
2022/08/31 01:04:12;;;;;;;;;;;15.90;99.90;;;;;;5045578;28;19926;-80
2022/08/31 01:06:38;;;;;;;;;;;15.90;99.90;;;;;;4996639;28;20512;-79
2022/08/31 01:09:05;;;;;;;;;;;15.80;99.90;;;;;;5045781;28;19926;-80
2022/08/31 01:11:31;;;;;;;;;;;15.80;99.90;;;;;;5012613;28;20435;-79
2022/08/31 01:13:57;;;;;;;;;;;15.70;99.90;;;;;;5029298;28;20027;-80
2022/08/31 01:16:32;;;;;;;;;;;15.70;99.90;;;;;;5012925;28;19957;-80
2022/08/31 01:18:58;;;;;;;;;;;15.70;99.90;;;;;;5014804;28;19921;-80
2022/08/31 01:21:30;;;;;;;;;;;15.70;99.90;;;;;;5000875;28;19933;-80
2022/08/31 01:23:59;;;;;;;;;;;15.70;99.90;;;;;;5016934;28;19925;-79
2022/08/31 01:26:25;;;;;;;;;;;15.60;99.90;;;;;;5017585;28;19925;-79
2022/08/31 01:28:53;;;;;;;;;;;15.60;99.90;;;;;;5016523;28;19925;-79
2022/08/31 01:31:18;;;;;;;;;;;15.60;99.90;;;;;;5000448;28;19976;-80
2022/08/31 01:33:44;;;;;;;;;;;15.60;99.90;;;;;;5049740;28;19995;-80
2022/08/31 01:36:10;;;;;;;;;;;15.60;99.90;;;;;;5000282;28;19925;-80
2022/08/31 01:38:36;;;;;;;;;;;15.50;99.90;;;;;;5016626;28;19932;-79
2022/08/31 01:41:02;;;;;;;;;;;15.50;99.90;;;;;;5000454;28;20269;-79
2022/08/31 01:43:28;;;;;;;;;;;15.40;99.90;;;;;;5033064;28;19932;-79
2022/08/31 01:45:54;;;;;;;;;;;15.40;99.90;;;;;;5049494;28;19979;-80
2022/08/31 01:48:20;;;;;;;;;;;15.30;99.90;;;;;;5049412;28;19933;-80
2022/08/31 01:50:46;;;;;;;;;;;15.30;99.90;;;;;;5050333;28;19976;-79
2022/08/31 01:53:12;;;;;;;;;;;15.30;99.90;;;;;;5017147;28;19973;-80
2022/08/31 01:55:37;;;;;;;;;;;15.20;99.90;;;;;;5016001;28;20395;-79
2022/08/31 01:58:03;;;;;;;;;;;15.20;99.90;;;;;;5016267;28;20020;-79
2022/08/31 02:00:30;;;;;;;;;;;15.20;99.90;;;;;;5000400;28;19930;-79
2022/08/31 02:02:57;;;;;;;;;;;15.10;99.90;;;;;;5016275;28;19925;-79
2022/08/31 02:05:23;;;;;;;;;;;15.10;99.90;;;;;;5048862;28;20266;-79
2022/08/31 02:07:48;;;;;;;;;;;15.10;99.90;;;;;;5000306;28;19979;-79
2022/08/31 02:10:14;;;;;;;;;;;15.00;99.90;;;;;;5015760;28;19936;-79
2022/08/31 02:12:39;;;;;;;;;;;15.00;99.90;;;;;;5000295;28;19929;-79
2022/08/31 02:15:05;;;;;;;;;;;15.00;99.90;;;;;;4999270;28;19949;-80
2022/08/31 02:17:31;;;;;;;;;;;15.00;99.90;;;;;;5015795;28;19926;-80
2022/08/31 02:19:57;;;;;;;;;;;14.90;99.90;;;;;;5015981;28;19925;-78
2022/08/31 02:22:22;;;;;;;;;;;14.90;99.90;;;;;;5032518;28;19933;-79
2022/08/31 02:24:48;;;;;;;;;;;14.90;99.90;;;;;;5015392;28;19948;-80
2022/08/31 02:27:13;;;;;;;;;;;14.80;99.90;;;;;;5016452;28;19926;-79
2022/08/31 02:29:39;;;;;;;;;;;14.80;99.90;;;;;;5014047;28;19937;-79
2022/08/31 02:32:05;;;;;;;;;;;14.80;99.90;;;;;;5015849;28;20277;-79
2022/08/31 02:34:31;;;;;;;;;;;14.70;99.90;;;;;;5032033;28;19932;-79
2022/08/31 02:36:57;;;;;;;;;;;14.70;99.90;;;;;;5015494;28;19925;-79
2022/08/31 02:39:23;;;;;;;;;;;14.70;99.90;;;;;;5048562;28;19940;-79
2022/08/31 02:41:49;;;;;;;;;;;14.60;99.90;;;;;;5015091;28;20032;-79
2022/08/31 02:44:14;;;;;;;;;;;14.60;99.90;;;;;;5015430;28;19968;-79
2022/08/31 02:46:40;;;;;;;;;;;14.60;99.90;;;;;;5015303;28;19933;-79
2022/08/31 02:49:05;;;;;;;;;;;14.50;99.90;;;;;;5014971;28;20029;-79
2022/08/31 02:51:31;;;;;;;;;;;14.50;99.90;;;;;;5015290;28;19925;-80
2022/08/31 02:53:56;;;;;;;;;;;14.40;99.90;;;;;;5015227;28;20020;-79
2022/08/31 02:56:22;;;;;;;;;;;14.30;99.90;;;;;;5014786;28;19926;-79
2022/08/31 02:58:53;;;;;;;;;;;14.30;99.90;;;;;;5048147;28;20006;-79
2022/08/31 03:01:20;;;;;;;;;;;14.30;99.90;;;;;;5015007;28;20508;-80
2022/08/31 03:03:45;;;;;;;;;;;14.20;99.90;;;;;;5031261;28;20374;-79
2022/08/31 03:06:11;;;;;;;;;;;14.20;99.90;;;;;;4998335;28;19932;-79
2022/08/31 03:08:38;;;;;;;;;;;14.10;99.90;;;;;;4998417;28;19926;-79
2022/08/31 03:11:04;;;;;;;;;;;14.10;99.90;;;;;;5047895;28;19925;-79
2022/08/31 03:13:29;;;;;;;;;;;14.00;99.90;;;;;;5047938;28;20392;-79
2022/08/31 03:15:56;;;;;;;;;;;14.00;99.90;;;;;;5014724;28;19933;-79
2022/08/31 03:18:21;;;;;;;;;;;14.00;99.90;;;;;;5014735;28;19931;-79
2022/08/31 03:20:47;;;;;;;;;;;14.00;99.90;;;;;;5014656;28;20012;-79
2022/08/31 03:23:14;;;;;;;;;;;14.00;99.90;;;;;;4998349;28;19929;-79
2022/08/31 03:25:40;;;;;;;;;;;14.00;99.90;;;;;;5031062;28;19929;-80
2022/08/31 03:28:05;;;;;;;;;;;14.00;99.90;;;;;;5030957;28;19929;-79
2022/08/31 03:30:31;;;;;;;;;;;13.90;99.90;;;;;;5031683;28;19932;-79
2022/08/31 03:32:57;;;;;;;;;;;14.00;99.90;;;;;;5030882;28;20043;-79
2022/08/31 03:35:22;;;;;;;;;;;14.00;99.90;;;;;;4998047;28;19925;-79
2022/08/31 03:37:48;;;;;;;;;;;14.00;99.90;;;;;;4997984;28;19975;-79
2022/08/31 03:40:13;;;;;;;;;;;14.00;99.90;;;;;;5014322;28;20016;-80
2022/08/31 03:42:39;;;;;;;;;;;14.00;99.90;;;;;;5046948;28;19930;-79
2022/08/31 03:45:07;;;;;;;;;;;13.90;99.90;;;;;;5030437;28;19925;-79
2022/08/31 03:47:33;;;;;;;;;;;13.90;99.90;;;;;;5014504;28;19925;-79
2022/08/31 03:49:59;;;;;;;;;;;13.90;99.90;;;;;;5030319;28;19934;-79
2022/08/31 03:52:24;;;;;;;;;;;13.90;99.90;;;;;;5030969;28;20320;-79
2022/08/31 03:54:50;;;;;;;;;;;13.90;99.90;;;;;;4997719;28;19925;-79
2022/08/31 03:57:15;;;;;;;;;;;13.90;99.90;;;;;;4997725;28;19934;-79
2022/08/31 03:59:41;;;;;;;;;;;13.90;99.90;;;;;;5014098;28;19925;-79
2022/08/31 04:02:06;;;;;;;;;;;13.80;99.90;;;;;;5013911;28;20289;-79
2022/08/31 04:04:33;;;;;;;;;;;13.80;99.90;;;;;;4997274;28;19929;-79
2022/08/31 04:06:59;;;;;;;;;;;13.80;99.90;;;;;;5046896;28;20023;-80
2022/08/31 04:09:24;;;;;;;;;;;13.80;99.90;;;;;;4997496;28;20334;-80
2022/08/31 04:11:50;;;;;;;;;;;13.80;99.90;;;;;;5014785;28;19926;-80
2022/08/31 04:14:16;;;;;;;;;;;13.80;99.90;;;;;;4997384;28;19992;-79
2022/08/31 04:16:42;;;;;;;;;;;13.80;99.90;;;;;;5013961;28;19935;-80
2022/08/31 04:19:08;;;;;;;;;;;13.70;99.90;;;;;;5030116;28;19925;-79
2022/08/31 04:21:34;;;;;;;;;;;13.80;99.90;;;;;;5013342;28;20393;-80
2022/08/31 04:24:00;;;;;;;;;;;13.80;99.90;;;;;;4997089;28;19926;-79
2022/08/31 04:26:27;;;;;;;;;;;13.80;99.90;;;;;;5030235;28;19933;-79
2022/08/31 04:28:53;;;;;;;;;;;13.80;99.90;;;;;;5013316;28;19922;-80
2022/08/31 04:31:19;;;;;;;;;;;13.70;99.90;;;;;;5013688;28;19929;-79
2022/08/31 04:33:45;;;;;;;;;;;13.80;99.90;;;;;;5046513;28;19925;-79
2022/08/31 04:36:16;;;;;;;;;;;13.80;99.90;;;;;;5046558;28;20021;-79
2022/08/31 04:38:42;;;;;;;;;;;13.80;99.90;;;;;;5013477;28;20281;-80
2022/08/31 04:41:09;;;;;;;;;;;13.80;99.90;;;;;;5046343;28;19949;-79
2022/08/31 04:43:35;;;;;;;;;;;13.80;99.90;;;;;;5029789;28;20332;-80
2022/08/31 04:46:02;;;;;;;;;;;13.80;99.90;;;;;;5029903;28;19930;-79
2022/08/31 04:48:28;;;;;;;;;;;13.80;99.90;;;;;;5012797;28;19973;-79
2022/08/31 04:51:01;;;;;;;;;;;13.70;99.90;;;;;;5046538;28;19968;-80
2022/08/31 04:53:26;;;;;;;;;;;13.70;99.90;;;;;;4996880;28;20245;-79
2022/08/31 04:55:52;;;;;;;;;;;13.80;99.90;;;;;;5046920;28;19929;-79
2022/08/31 04:58:19;;;;;;;;;;;13.70;99.90;;;;;;4997503;28;20032;-79
2022/08/31 05:00:44;;;;;;;;;;;13.80;99.90;;;;;;5046163;28;20015;-79
2022/08/31 05:03:10;;;;;;;;;;;13.80;99.90;;;;;;4996495;28;19969;-79
2022/08/31 05:05:37;;;;;;;;;;;13.80;99.90;;;;;;5013073;28;20342;-79
2022/08/31 05:08:04;;;;;;;;;;;13.80;99.90;;;;;;5029321;28;20015;-79
2022/08/31 05:10:29;;;;;;;;;;;13.80;99.90;;;;;;4996908;28;20011;-79
2022/08/31 05:12:55;;;;;;;;;;;13.80;99.90;;;;;;5013019;28;20038;-79
2022/08/31 05:15:20;;;;;;;;;;;13.80;99.90;;;;;;5012945;28;19929;-79
2022/08/31 05:17:46;;;;;;;;;;;13.90;99.90;;;;;;4996544;28;19928;-79
2022/08/31 05:20:12;;;;;;;;;;;13.90;99.90;;;;;;5012949;28;19922;-79
2022/08/31 05:22:37;;;;;;;;;;;13.90;99.90;;;;;;5012660;28;20357;-79
2022/08/31 05:25:05;;;;;;;;;;;13.90;99.90;;;;;;5046418;28;19921;-79
2022/08/31 05:27:32;;;;;;;;;;;13.90;99.90;;;;;;5012871;28;19928;-79
2022/08/31 05:29:57;;;;;;;;;;;14.00;99.90;;;;;;5012806;28;19921;-79
2022/08/31 05:32:23;;;;;;;;;;;14.00;99.90;;;;;;4996731;28;19922;-79
2022/08/31 05:34:48;;;;;;;;;;;14.10;99.90;;;;;;5045832;28;19936;-79
2022/08/31 05:37:14;;;;;;;;;;;14.00;99.90;;;;;;4996572;28;20052;-79
2022/08/31 05:39:39;;;;;;;;;;;14.10;99.90;;;;;;4997102;28;19933;-79
2022/08/31 05:42:06;;;;;;;;;;;14.10;99.90;;;;;;4996218;28;19925;-78
2022/08/31 05:44:35;;;;;;;;;;;14.20;99.90;;;;;;5045841;28;20360;-79
2022/08/31 05:47:01;;;;;;;;;;;14.20;99.90;;;;;;5045715;28;20075;-79
2022/08/31 05:49:27;;;;;;;;;;;14.30;99.90;;;;;;5028828;28;19980;-79
2022/08/31 05:51:52;;;;;;;;;;;14.30;99.90;;;;;;5013291;28;19934;-79
2022/08/31 05:54:18;;;;;;;;;;;14.30;99.90;;;;;;5012591;28;20036;-79
2022/08/31 05:56:44;;;;;;;;;;;14.40;99.90;;;;;;5012724;28;19925;-82
2022/08/31 05:59:11;;;;;;;;;;;14.50;99.90;;;;;;5029064;28;19968;-82
2022/08/31 06:01:38;;;;;;;;;;;14.50;99.90;;;;;;4996156;28;20376;-84
2022/08/31 06:04:04;;;;;;;;;;;14.60;99.90;;;;;;5013483;28;19925;-83
2022/08/31 06:06:29;;;;;;;;;;;14.60;99.90;;;;;;5032817;28;20272;-79
2022/08/31 06:08:55;;;;;;;;;;;14.70;99.90;;;;;;5016041;28;20028;-80
2022/08/31 06:11:23;;;;;;;;;;;14.70;99.90;;;;;;5032530;28;19980;-80
2022/08/31 06:13:51;;;;;;;;;;;14.80;99.90;;;;;;4999728;28;19929;-81
2022/08/31 06:16:17;;;;;;;;;;;14.80;99.90;;;;;;5015960;28;19975;-80
2022/08/31 06:18:52;;;;;;;;;;;14.90;99.90;;;;;;5032361;28;19932;-80
2022/08/31 06:21:24;;;;;;;;;;;15.00;99.90;;;;;;5016091;28;19925;-80
2022/08/31 06:23:51;;;;;;;;;;;15.10;99.90;;;;;;5048905;28;19925;-81
2022/08/31 06:26:17;;;;;;;;;;;15.10;99.90;;;;;;5015355;28;19932;-81
2022/08/31 06:28:51;;;;;;;;;;;15.20;99.90;;;;;;5031973;28;19926;-80
2022/08/31 06:31:22;;;;;;;;;;;15.30;99.90;;;;;;5032452;28;19926;-81
2022/08/31 06:33:47;;;;;;;;;;;15.40;99.90;;;;;;5016369;28;19926;-81
2022/08/31 06:36:15;;;;;;;;;;;15.50;99.90;;;;;;5015309;28;20427;-80
2022/08/31 06:38:42;;;;;;;;;;;15.60;99.90;;;;;;5015595;28;19977;-80
2022/08/31 06:41:26;;;;;;;;;;;15.70;99.90;;;;;;4999216;28;19926;-81
2022/08/31 06:43:52;;;;;;;;;;;15.80;99.90;;;;;;5016199;28;19926;-84
2022/08/31 06:46:18;;;;;;;;;;;15.90;99.90;;;;;;5015698;28;20369;-80
2022/08/31 06:48:44;;;;;;;;;;;16.00;99.90;;;;;;5032256;28;19926;-90
2022/08/31 06:51:10;;;;;;;;;;;16.10;99.90;;;;;;4999598;28;19932;-78
2022/08/31 06:53:39;;;;;;;;;;;16.20;99.90;;;;;;5048467;28;19925;-77
2022/08/31 06:56:27;;;;;;;;;;;16.30;99.90;;;;;;5015202;28;19930;-78
2022/08/31 06:58:53;;;;;;;;;;;16.50;99.90;;;;;;5015266;28;19926;-78
2022/08/31 07:01:20;;;;;;;;;;;16.50;99.90;;;;;;5015090;28;19932;-77
2022/08/31 07:03:47;;;;;;;;;;;16.60;99.90;;;;;;5015336;28;20023;-77
2022/08/31 07:06:16;;;;;;;;;;;16.70;99.90;;;;;;5015076;28;19980;-76
2022/08/31 07:08:43;;;;;;;;;;;16.80;99.90;;;;;;5014796;28;19925;-76
2022/08/31 07:11:17;;;;;;;;;;;16.90;99.90;;;;;;5014627;28;19925;-76
2022/08/31 07:13:43;;;;;;;;;;;17.00;99.90;;;;;;5014971;28;19933;-76
2022/08/31 07:16:10;;;;;;;;;;;17.10;99.90;;;;;;5015405;28;19944;-76
2022/08/31 07:18:35;;;;;;;;;;;17.20;99.90;;;;;;5016246;28;20324;-78
2022/08/31 07:21:06;;;;;;;;;;;17.20;99.90;;;;;;5014936;28;19925;-81
2022/08/31 07:23:32;;;;;;;;;;;17.30;99.90;;;;;;5014447;28;19926;-77
2022/08/31 07:26:01;;;;;;;;;;;17.40;99.90;;;;;;5048276;28;20317;-80
2022/08/31 07:28:28;;;;;;;;;;;17.40;99.90;;;;;;5015077;28;20276;-83
2022/08/31 07:30:54;;;;;;;;;;;17.50;99.90;;;;;;5047749;28;19983;-84
2022/08/31 07:33:19;;;;;;;;;;;17.60;99.90;;;;;;5030887;28;19929;-83
2022/08/31 07:35:45;;;;;;;;;;;17.60;99.90;;;;;;4998848;28;20008;-79
2022/08/31 07:43:40;;;;;;;;;;;17.90;99.90;;;;;;5048135;28;20039;-77
2022/08/31 07:46:06;;;;;;;;;;;18.00;99.90;;;;;;5047583;28;19925;-87
2022/08/31 07:48:31;;;;;;;;;;;18.10;99.90;;;;;;5014394;28;19925;-84
2022/08/31 07:50:57;;;;;;;;;;;18.20;99.90;;;;;;5013852;28;19976;-86
2022/08/31 07:53:23;;;;;;;;;;;18.20;99.90;;;;;;4997796;28;19933;-82
2022/08/31 07:55:51;;;;;;;;;;;18.20;99.90;;;;;;5030689;28;19933;-87
2022/08/31 07:58:17;;;;;;;;;;;18.30;99.90;;;;;;4998494;28;20016;-87
2022/08/31 08:00:47;;;;;;;;;;;18.40;99.90;;;;;;5047395;28;19925;-82
2022/08/31 08:03:13;;;;;;;;;;;18.40;99.90;;;;;;5029880;28;20277;-82
2022/08/31 08:05:40;;;;;;;;;;;18.50;99.90;;;;;;5030046;28;20396;-75
2022/08/31 08:08:07;;;;;;;;;;;18.50;99.90;;;;;;5029889;28;19926;-76
2022/08/31 08:10:33;;;;;;;;;;;18.60;99.90;;;;;;5013591;28;20378;-77
2022/08/31 08:13:02;;;;;;;;;;;18.70;99.90;;;;;;5013732;28;19936;-76
2022/08/31 08:15:29;;;;;;;;;;;18.70;99.90;;;;;;4997834;28;19926;-78
2022/08/31 08:17:55;;;;;;;;;;;18.80;99.90;;;;;;5013713;28;19929;-77
2022/08/31 08:20:21;;;;;;;;;;;18.80;99.90;;;;;;5013646;28;19947;-79
2022/08/31 08:22:46;;;;;;;;;;;18.90;99.90;;;;;;5029543;28;20421;-78
2022/08/31 08:25:12;;;;;;;;;;;19.00;99.90;;;;;;4997564;28;19925;-80
2022/08/31 08:27:38;;;;;;;;;;;19.10;99.90;;;;;;5029931;28;19926;-80
2022/08/31 08:30:05;;;;;;;;;;;19.20;99.90;;;;;;5046686;28;19926;-79
2022/08/31 08:32:30;;;;;;;;;;;19.20;99.90;;;;;;5030151;28;19932;-77
2022/08/31 08:34:56;;;;;;;;;;;19.30;99.90;;;;;;5012802;28;19939;-77
2022/08/31 08:37:22;;;;;;;;;;;19.30;99.90;;;;;;5030217;28;19925;-77
2022/08/31 08:39:48;;;;;;;;;;;19.30;99.90;;;;;;4997747;28;20035;-84
2022/08/31 08:42:14;;;;;;;;;;;19.30;99.90;;;;;;5013230;28;20008;-79
2022/08/31 08:44:41;;;;;;;;;;;19.20;99.90;;;;;;5046298;28;19980;-83
2022/08/31 08:47:13;;;;;;;;;;;19.20;99.90;;;;;;5029652;28;19926;-80
2022/08/31 08:49:48;;;;;;;;;;;19.30;99.90;;;;;;5013560;28;19937;-78
2022/08/31 08:52:13;;;;;;;;;;;19.50;99.90;;;;;;5029325;28;19926;-82
2022/08/31 08:54:41;;;;;;;;;;;19.60;99.90;;;;;;5012937;28;20313;-81
2022/08/31 08:57:12;;;;;;;;;;;19.60;99.90;;;;;;5013017;28;19979;-84
2022/08/31 08:59:42;;;;;;;;;;;19.60;99.90;;;;;;5013506;28;20285;-75
2022/08/31 09:02:10;;;;;;;;;;;19.60;99.90;;;;;;5012361;28;19926;-80
2022/08/31 09:04:48;;;;;;;;;;;19.70;99.90;;;;;;5012471;28;19929;-80
2022/08/31 09:07:17;;;;;;;;;;;19.80;99.90;;;;;;5013227;28;20024;-83
2022/08/31 09:09:46;;;;;;;;;;;20.00;99.90;;;;;;5045290;28;20282;-81
2022/08/31 09:12:19;;;;;;;;;;;20.00;99.90;;;;;;5012929;28;20056;-81
2022/08/31 09:14:47;;;;;;;;;;;20.10;99.90;;;;;;5029506;28;19932;-81
2022/08/31 09:17:32;;;;;;;;;;;20.10;99.90;;;;;;5029360;28;19925;-81
2022/08/31 09:19:59;;;;;;;;;;;20.20;99.90;;;;;;5013687;28;19926;-80
2022/08/31 09:22:29;;;;;;;;;;;20.00;99.90;;;;;;4996755;28;20012;-80
2022/08/31 09:24:58;;;;;;;;;;;20.00;99.90;;;;;;4996484;28;19932;-82
2022/08/31 09:27:45;;;;;;;;;;;19.90;99.90;;;;;;5012901;28;20035;-82
2022/08/31 09:30:16;;;;;;;;;;;19.90;99.90;;;;;;5029757;28;20247;-79
2022/08/31 09:32:52;;;;;;;;;;;20.00;99.90;;;;;;5029462;28;19944;-79
2022/08/31 09:35:23;;;;;;;;;;;20.20;99.90;;;;;;5013148;28;20015;-78
2022/08/31 09:38:02;;;;;;;;;;;20.20;99.90;;;;;;5013041;28;19933;-78
2022/08/31 09:40:38;;;;;;;;;;;20.30;99.90;;;;;;5032394;28;19926;-79
2022/08/31 09:43:07;;;;;;;;;;;20.40;99.90;;;;;;5017154;28;19925;-79
2022/08/31 09:45:36;;;;;;;;;;;20.50;99.90;;;;;;5017027;28;19972;-80
2022/08/31 09:48:03;;;;;;;;;;;20.60;99.90;;;;;;5049580;28;20270;-79
2022/08/31 09:50:32;;;;;;;;;;;20.60;99.50;;;;;;5016593;28;19929;-79
2022/08/31 09:56:14;;;;;;;;;;;20.70;99.20;;;;;;5049448;28;19929;-78
2022/08/31 09:58:50;;;;;;;;;;;20.80;99.10;;;;;;5016337;28;20027;-77
2022/08/31 10:01:21;;;;;;;;;;;20.90;98.60;;;;;;5016627;28;20357;-77
2022/08/31 10:03:47;;;;;;;;;;;21.10;99.50;;;;;;5016148;28;19932;-79
2022/08/31 10:06:25;;;;;;;;;;;21.10;99.20;;;;;;5016520;28;19926;-78
2022/08/31 10:08:57;;;;;;;;;;;21.20;99.60;;;;;;5000326;28;19927;-80
2022/08/31 10:11:25;;;;;;;;;;;21.30;99.40;;;;;;5000377;28;19933;-89
2022/08/31 10:14:05;;;;;;;;;;;21.40;99.90;;;;;;5015763;28;20399;-77
2022/08/31 10:16:33;;;;;;;;;;;21.50;99.50;;;;;;5016076;28;19926;-78
2022/08/31 10:19:09;;;;;;;;;;;21.60;98.50;;;;;;5015911;28;19988;-82
2022/08/31 10:21:52;;;;;;;;;;;21.70;98.90;;;;;;5015461;28;20420;-81
2022/08/31 10:24:26;;;;;;;;;;;21.70;98.70;;;;;;5048999;28;19933;-80
2022/08/31 10:26:57;;;;;;;;;;;21.80;99.00;;;;;;5048894;28;19932;-82
2022/08/31 10:29:30;;;;;;;;;;;21.90;99.90;;;;;;5016564;28;20141;-81
2022/08/31 10:31:57;;;;;;;;;;;21.90;99.90;;;;;;5016914;28;19925;-83
2022/08/31 10:37:18;;;;;;;;;;;21.80;99.60;;;;;;5048856;28;19987;-85
2022/08/31 10:39:50;;;;;;;;;;;21.80;98.80;;;;;;5015581;28;19925;-78
2022/08/31 10:42:20;;;;;;;;;;;21.80;97.40;;;;;;5048421;28;19925;-83
2022/08/31 10:44:56;;;;;;;;;;;21.90;97.10;;;;;;5031604;28;19933;-81
2022/08/31 10:47:24;;;;;;;;;;;22.10;97.80;;;;;;5048236;28;19925;-84
2022/08/31 10:49:53;;;;;;;;;;;22.10;98.30;;;;;;5014928;28;19984;-82
2022/08/31 10:52:22;;;;;;;;;;;22.20;98.10;;;;;;5014950;28;19925;-84
2022/08/31 10:54:50;;;;;;;;;;;22.40;98.60;;;;;;5031792;28;19925;-82
2022/08/31 10:57:34;;;;;;;;;;;22.50;98.30;;;;;;5015308;28;19933;-81
2022/08/31 10:59:59;;;;;;;;;;;22.60;97.80;;;;;;4998748;28;19987;-80
2022/08/31 11:02:28;;;;;;;;;;;22.70;95.90;;;;;;5015138;28;20052;-81
2022/08/31 11:05:17;;;;;;;;;;;22.80;96.00;;;;;;5014634;28;19961;-79
2022/08/31 11:07:49;;;;;;;;;;;22.80;95.70;;;;;;5011667;28;19932;-80
2022/08/31 11:10:23;;;;;;;;;;;22.80;95.70;;;;;;4998332;28;20019;-79
2022/08/31 11:12:51;;;;;;;;;;;22.90;95.60;;;;;;5031835;28;19925;-78
2022/08/31 11:15:27;;;;;;;;;;;23.00;96.10;;;;;;5014990;28;19999;-80
2022/08/31 11:18:01;;;;;;;;;;;23.10;94.60;;;;;;5031005;28;19925;-80
2022/08/31 11:20:46;;;;;;;;;;;23.30;94.80;;;;;;5014735;28;19932;-79
2022/08/31 11:23:30;;;;;;;;;;;23.40;95.10;;;;;;5047578;28;20385;-79
2022/08/31 11:25:57;;;;;;;;;;;23.60;94.80;;;;;;5015931;28;20392;-79
2022/08/31 11:28:32;;;;;;;;;;;23.90;94.90;;;;;;5031036;28;19926;-80
2022/08/31 11:31:13;;;;;;;;;;;24.10;94.60;;;;;;5031882;28;19933;-79
2022/08/31 11:33:43;;;;;;;;;;;24.40;94.50;;;;;;5015661;28;19933;-79
2022/08/31 11:36:09;;;;;;;;;;;24.60;94.40;;;;;;5015499;28;19999;-79
2022/08/31 11:38:42;;;;;;;;;;;24.80;94.20;;;;;;5031720;28;20333;-79
2022/08/31 11:41:12;;;;;;;;;;;25.10;93.60;;;;;;4998307;28;20012;-80
2022/08/31 11:43:42;;;;;;;;;;;25.30;93.70;;;;;;5031770;28;20031;-80
2022/08/31 11:46:24;;;;;;;;;;;25.60;93.60;;;;;;5015803;28;20277;-80
2022/08/31 11:48:53;;;;;;;;;;;25.80;93.00;;;;;;5030794;28;19973;-79
2022/08/31 11:51:33;;;;;;;;;;;26.10;92.20;;;;;;5015169;28;19926;-80
2022/08/31 11:54:00;;;;;;;;;;;26.20;92.40;;;;;;5048129;28;19939;-80
2022/08/31 11:56:46;;;;;;;;;;;26.40;92.60;;;;;;5014189;28;20029;-80
2022/08/31 11:59:25;;;;;;;;;;;26.60;92.50;;;;;;5047378;28;19932;-80
2022/08/31 12:01:53;;;;;;;;;;;26.70;92.80;;;;;;5013802;28;19926;-80
2022/08/31 12:04:35;;;;;;;;;;;26.60;92.70;;;;;;5046871;28;19925;-79
2022/08/31 12:07:03;;;;;;;;;;;26.90;92.40;;;;;;5046946;28;19936;-79
2022/08/31 12:09:52;;;;;;;;;;;27.00;91.70;;;;;;5013926;28;19972;-79
2022/08/31 12:12:18;;;;;;;;;;;27.20;91.80;;;;;;5015068;28;19926;-80
2022/08/31 12:14:55;;;;;;;;;;;27.20;91.30;;;;;;5047160;28;20277;-79
2022/08/31 12:17:24;;;;;;;;;;;27.20;92.10;;;;;;5030010;28;19952;-80
2022/08/31 12:20:06;;;;;;;;;;;27.10;91.00;;;;;;5046864;28;19932;-80
2022/08/31 12:25:27;;;;;;;;;;;27.30;90.60;;;;;;5014683;28;20044;-80
2022/08/31 12:27:53;;;;;;;;;;;27.40;90.60;;;;;;4997206;28;19926;-79
2022/08/31 12:30:23;;;;;;;;;;;27.80;90.60;;;;;;5012958;28;19949;-80
2022/08/31 12:33:10;;;;;;;;;;;27.60;88.90;;;;;;5014252;28;19937;-80
2022/08/31 12:35:35;;;;;;;;;;;27.40;88.40;;;;;;4997403;28;19926;-81
2022/08/31 12:38:03;;;;;;;;;;;27.50;89.30;;;;;;5013384;28;19932;-80
2022/08/31 12:40:53;;;;;;;;;;;27.60;89.70;;;;;;5013113;28;19929;-80
2022/08/31 12:43:34;;;;;;;;;;;27.90;90.10;;;;;;5010386;28;20263;-80
2022/08/31 12:46:02;;;;;;;;;;;28.10;89.60;;;;;;5015009;28;19929;-80
2022/08/31 12:48:28;;;;;;;;;;;28.40;88.80;;;;;;4996895;28;19932;-80
2022/08/31 12:51:09;;;;;;;;;;;28.70;86.30;;;;;;4997097;28;19926;-80
2022/08/31 12:53:50;;;;;;;;;;;28.80;87.70;;;;;;5013224;28;19971;-80
2022/08/31 12:56:37;;;;;;;;;;;28.90;87.10;;;;;;5013124;28;19929;-88
2022/08/31 12:59:20;;;;;;;;;;;28.90;87.20;;;;;;5014251;28;19926;-74
2022/08/31 13:01:48;;;;;;;;;;;29.20;86.90;;;;;;4996135;28;19933;-80
2022/08/31 13:04:14;;;;;;;;;;;28.60;85.30;;;;;;5028631;28;19936;-79
2022/08/31 13:06:43;;;;;;;;;;;28.70;85.50;;;;;;5012575;28;19926;-80
2022/08/31 13:09:42;;;;;;;;;;;29.00;86.40;;;;;;5013589;28;19937;-78
2022/08/31 13:12:08;;;;;;;;;;;29.00;85.20;;;;;;5001490;28;19926;-78
2022/08/31 13:14:43;;;;;;;;;;;29.20;85.60;;;;;;5012326;28;19976;-79
2022/08/31 13:17:11;;;;;;;;;;;29.20;84.50;;;;;;5046015;28;20012;-79
2022/08/31 13:19:38;;;;;;;;;;;29.00;83.80;;;;;;5012650;28;19925;-79
2022/08/31 13:22:08;;;;;;;;;;;28.60;85.10;;;;;;5029238;28;19937;-79
2022/08/31 13:24:41;;;;;;;;;;;28.70;86.00;;;;;;5012861;28;19925;-78
2022/08/31 13:27:15;;;;;;;;;;;28.90;86.20;;;;;;5012857;28;19932;-79
2022/08/31 13:29:44;;;;;;;;;;;29.10;86.20;;;;;;5012920;28;19969;-79
2022/08/31 13:32:11;;;;;;;;;;;29.70;86.20;;;;;;5030013;28;19930;-79
2022/08/31 13:34:42;;;;;;;;;;;29.90;84.60;;;;;;5029211;28;19926;-79
2022/08/31 13:37:11;;;;;;;;;;;29.70;82.80;;;;;;5029196;28;19926;-79
2022/08/31 13:39:43;;;;;;;;;;;29.90;83.40;;;;;;5012294;28;20365;-80
2022/08/31 13:42:18;;;;;;;;;;;30.00;83.90;;;;;;5013516;28;19926;-79
2022/08/31 13:44:45;;;;;;;;;;;30.10;83.20;;;;;;5013452;28;19926;-79
2022/08/31 13:47:22;;;;;;;;;;;30.30;84.10;;;;;;5013347;28;19926;-78
2022/08/31 13:49:50;;;;;;;;;;;30.50;83.20;;;;;;5013513;28;19926;-78
2022/08/31 13:52:19;;;;;;;;;;;30.50;82.40;;;;;;5012879;28;19929;-78
2022/08/31 13:54:55;;;;;;;;;;;30.70;82.70;;;;;;5012807;28;19925;-78
2022/08/31 13:57:24;;;;;;;;;;;30.70;82.40;;;;;;5012869;28;19932;-79
2022/08/31 13:59:50;;;;;;;;;;;30.70;81.90;;;;;;4996386;28;20329;-79
2022/08/31 14:02:20;;;;;;;;;;;30.90;81.70;;;;;;5028932;28;19926;-80
2022/08/31 14:07:23;;;;;;;;;;;31.70;81.00;;;;;;5012151;28;20008;-78
2022/08/31 14:09:58;;;;;;;;;;;32.00;79.90;;;;;;5044892;28;19945;-79
2022/08/31 14:12:36;;;;;;;;;;;32.10;79.00;;;;;;5012370;28;19926;-79
2022/08/31 14:15:08;;;;;;;;;;;31.90;78.20;;;;;;5029177;28;19925;-79
2022/08/31 14:17:38;;;;;;;;;;;32.00;77.40;;;;;;5046252;28;20249;-79
2022/08/31 14:20:40;;;;;;;;;;;32.20;77.70;;;;;;5029534;28;19926;-79
2022/08/31 14:23:24;;;;;;;;;;;32.30;74.90;;;;;;4994751;28;20072;-79
2022/08/31 14:25:53;;;;;;;;;;;32.50;76.50;;;;;;4995722;28;19936;-79
2022/08/31 14:31:11;;;;;;;;;;;32.50;73.80;;;;;;5049157;28;19981;-79
2022/08/31 14:33:37;;;;;;;;;;;32.30;76.00;;;;;;5016447;28;19925;-79
2022/08/31 14:36:12;;;;;;;;;;;32.30;74.10;;;;;;5015711;28;19933;-79
2022/08/31 14:38:37;;;;;;;;;;;32.60;74.80;;;;;;5049520;28;20354;-80
2022/08/31 14:41:03;;;;;;;;;;;32.70;74.50;;;;;;4999251;28;20020;-80
2022/08/31 14:43:28;;;;;;;;;;;33.00;74.70;;;;;;5016475;28;20369;-79
2022/08/31 14:45:55;;;;;;;;;;;33.20;73.80;;;;;;5015432;28;19973;-80
2022/08/31 14:48:21;;;;;;;;;;;33.30;73.30;;;;;;5048475;28;19932;-78
2022/08/31 14:50:47;;;;;;;;;;;33.10;72.50;;;;;;4999033;28;19925;-78